createdAt,value
2023-05-30T00:00:33.344Z,99.90
2023-05-30T00:03:00.523Z,99.90
2023-05-30T00:05:27.573Z,99.90
2023-05-30T00:07:54.532Z,99.90
2023-05-30T00:10:21.617Z,99.90
2023-05-30T00:12:48.548Z,99.90
2023-05-30T00:15:17.460Z,99.90
2023-05-30T00:17:44.674Z,99.90
2023-05-30T00:20:12.332Z,99.90
2023-05-30T00:22:42.520Z,99.90
2023-05-30T00:25:10.613Z,99.90
2023-05-30T00:27:38.050Z,99.90
2023-05-30T00:30:05.249Z,99.90
2023-05-30T00:32:32.164Z,99.90
2023-05-30T00:34:59.070Z,99.90
2023-05-30T00:37:26.394Z,99.90
2023-05-30T00:39:53.269Z,99.90
2023-05-30T00:42:20.226Z,99.90
2023-05-30T00:44:47.217Z,99.90
2023-05-30T00:47:14.678Z,99.90
2023-05-30T00:49:42.243Z,99.90
2023-05-30T00:52:09.773Z,99.90
2023-05-30T00:54:38.767Z,99.90
2023-05-30T00:57:06.775Z,99.90
2023-05-30T00:59:33.962Z,99.90
2023-05-30T01:02:00.960Z,99.90
2023-05-30T01:04:27.871Z,99.90
2023-05-30T01:06:55.147Z,99.90
2023-05-30T01:09:22.380Z,99.90
2023-05-30T01:11:49.289Z,99.90
2023-05-30T01:14:27.226Z,99.90
2023-05-30T01:17:01.860Z,99.90
2023-05-30T01:19:55.596Z,99.90
2023-05-30T01:22:50.525Z,99.90
2023-05-30T01:25:27.018Z,99.90
2023-05-30T01:28:07.995Z,99.90
2023-05-30T01:30:38.704Z,99.90
2023-05-30T01:33:08.550Z,99.90
2023-05-30T01:35:35.927Z,99.90
2023-05-30T01:38:03.261Z,99.90
2023-05-30T01:40:30.913Z,99.90
2023-05-30T01:43:07.684Z,99.90
2023-05-30T01:45:56.221Z,99.90
2023-05-30T01:48:35.835Z,99.90
2023-05-30T01:51:08.212Z,99.90
2023-05-30T01:53:43.467Z,99.90
2023-05-30T01:56:14.658Z,99.90
2023-05-30T01:58:46.220Z,99.90
2023-05-30T02:01:13.878Z,99.90
2023-05-30T02:03:40.951Z,99.90
2023-05-30T02:06:07.944Z,99.90
2023-05-30T02:08:35.000Z,99.90
2023-05-30T02:11:01.889Z,99.90
2023-05-30T02:13:28.926Z,99.90
2023-05-30T02:15:55.830Z,99.90
2023-05-30T02:18:22.819Z,99.90
2023-05-30T02:20:49.979Z,99.90
2023-05-30T02:23:17.162Z,99.90
2023-05-30T02:25:44.152Z,99.90
2023-05-30T02:28:11.091Z,99.90
2023-05-30T02:30:38.894Z,99.90
2023-05-30T02:33:05.982Z,99.90
2023-05-30T02:35:32.886Z,99.90
2023-05-30T02:37:59.922Z,99.90
2023-05-30T02:40:26.828Z,99.90
2023-05-30T02:42:53.743Z,99.90
2023-05-30T02:45:20.766Z,99.90
2023-05-30T02:47:47.768Z,99.90
2023-05-30T02:50:14.692Z,99.90
2023-05-30T02:52:41.903Z,99.90
2023-05-30T02:55:09.240Z,99.90
2023-05-30T02:57:36.209Z,99.90
2023-05-30T03:00:03.680Z,99.90
2023-05-30T03:02:31.609Z,99.90
2023-05-30T03:04:59.263Z,99.90
2023-05-30T03:07:28.127Z,99.90
2023-05-30T03:09:55.034Z,99.90
2023-05-30T03:12:24.011Z,99.90
2023-05-30T03:14:51.020Z,99.90
2023-05-30T03:17:18.770Z,99.90
2023-05-30T03:19:45.909Z,99.90
2023-05-30T03:22:12.802Z,99.90
2023-05-30T03:24:40.544Z,99.90
2023-05-30T03:27:08.497Z,99.90
2023-05-30T03:29:35.412Z,99.90
2023-05-30T03:32:02.491Z,99.90
2023-05-30T03:34:32.256Z,99.90
2023-05-30T03:36:59.787Z,99.90
2023-05-30T03:39:26.853Z,99.90
2023-05-30T03:41:53.826Z,99.90
2023-05-30T03:44:22.932Z,99.90
2023-05-30T03:46:49.963Z,99.90
2023-05-30T03:49:16.943Z,99.90
2023-05-30T03:51:43.916Z,99.90
2023-05-30T03:54:11.192Z,99.90
2023-05-30T03:56:38.174Z,99.90
2023-05-30T03:59:05.123Z,99.90
2023-05-30T04:01:32.135Z,99.90
2023-05-30T04:03:59.204Z,99.90
2023-05-30T04:06:26.273Z,99.90
2023-05-30T04:08:53.495Z,99.90
2023-05-30T04:11:20.561Z,99.90
2023-05-30T04:13:47.672Z,99.90
2023-05-30T04:16:14.613Z,99.90
2023-05-30T04:18:45.121Z,99.90
2023-05-30T04:21:15.644Z,99.90
2023-05-30T04:23:43.019Z,99.90
2023-05-30T04:26:11.117Z,99.90
2023-05-30T04:28:39.452Z,99.90
2023-05-30T04:31:20.477Z,99.90
2023-05-30T04:33:50.199Z,99.90
2023-05-30T04:36:20.110Z,99.90
2023-05-30T04:38:51.053Z,99.90
2023-05-30T04:41:26.388Z,99.90
2023-05-30T04:43:55.625Z,99.90
2023-05-30T04:46:23.124Z,99.90
2023-05-30T04:48:54.936Z,99.90
2023-05-30T04:51:22.630Z,99.90
2023-05-30T04:53:51.083Z,99.90
2023-05-30T04:56:18.408Z,99.90
2023-05-30T04:58:46.426Z,99.90
2023-05-30T05:01:15.066Z,99.90
2023-05-30T05:03:42.820Z,99.90
2023-05-30T05:06:11.202Z,99.90
2023-05-30T05:08:38.801Z,99.90
2023-05-30T05:11:07.401Z,99.90
2023-05-30T05:13:35.117Z,99.90
2023-05-30T05:16:02.914Z,99.90
2023-05-30T05:18:29.849Z,99.90
2023-05-30T05:20:57.212Z,99.90
2023-05-30T05:23:24.621Z,99.90
2023-05-30T05:25:51.804Z,99.90
2023-05-30T05:28:18.806Z,99.90
2023-05-30T05:30:46.601Z,99.90
2023-05-30T05:33:14.669Z,99.90
2023-05-30T05:35:42.186Z,99.90
2023-05-30T05:38:09.358Z,99.90
2023-05-30T05:40:36.844Z,99.90
2023-05-30T05:43:03.821Z,99.90
2023-05-30T05:45:30.831Z,99.90
2023-05-30T05:47:57.857Z,99.90
2023-05-30T05:50:24.836Z,99.90
2023-05-30T05:52:51.773Z,99.90
2023-05-30T05:55:18.690Z,99.90
2023-05-30T05:57:45.883Z,99.90
2023-05-30T06:00:13.387Z,99.90
2023-05-30T06:02:40.550Z,99.90
2023-05-30T06:05:08.303Z,99.90
2023-05-30T06:07:35.865Z,99.90
2023-05-30T06:10:02.899Z,99.90
2023-05-30T06:12:29.867Z,99.90
2023-05-30T06:14:56.778Z,99.90
2023-05-30T06:17:23.794Z,99.90
2023-05-30T06:19:51.862Z,99.90
2023-05-30T06:22:19.526Z,99.90
2023-05-30T06:24:48.129Z,99.90
2023-05-30T06:27:15.557Z,99.90
2023-05-30T06:29:43.102Z,99.90
2023-05-30T06:32:16.256Z,99.90
2023-05-30T06:34:45.788Z,99.90
2023-05-30T06:37:16.730Z,99.90
2023-05-30T06:39:43.948Z,99.90
2023-05-30T06:42:11.738Z,99.90
2023-05-30T06:44:38.850Z,99.90
2023-05-30T06:47:06.482Z,99.90
2023-05-30T06:49:33.612Z,99.90
2023-05-30T06:52:00.752Z,99.90
2023-05-30T06:54:28.446Z,99.90
2023-05-30T06:56:55.402Z,99.90
2023-05-30T06:59:22.317Z,99.90
2023-05-30T07:01:49.422Z,99.90
2023-05-30T07:04:16.420Z,99.90
2023-05-30T07:06:48.628Z,99.90
2023-05-30T07:09:15.575Z,99.90
2023-05-30T07:11:42.545Z,99.90
2023-05-30T07:14:09.493Z,99.90
2023-05-30T07:16:36.607Z,99.90
2023-05-30T07:19:12.332Z,99.90
2023-05-30T07:21:40.582Z,99.90
2023-05-30T07:24:07.660Z,99.90
2023-05-30T07:26:35.798Z,99.60
2023-05-30T07:29:03.319Z,99.90
2023-05-30T07:31:30.333Z,99.90
2023-05-30T07:33:57.999Z,99.90
2023-05-30T07:36:25.061Z,99.30
2023-05-30T07:38:52.298Z,98.80
2023-05-30T07:41:19.349Z,99.00
2023-05-30T07:43:46.387Z,99.00
2023-05-30T07:46:13.676Z,97.00
2023-05-30T07:48:42.240Z,97.10
2023-05-30T07:51:10.449Z,95.10
2023-05-30T07:53:38.103Z,96.00
2023-05-30T07:56:05.236Z,96.90
2023-05-30T07:58:32.206Z,96.90
2023-05-30T08:01:00.597Z,96.00
2023-05-30T08:03:27.807Z,96.90
2023-05-30T08:05:54.833Z,97.00
2023-05-30T08:08:21.789Z,97.10
2023-05-30T08:10:49.206Z,97.00
2023-05-30T08:13:16.266Z,96.40
2023-05-30T08:15:45.049Z,96.80
2023-05-30T08:18:12.992Z,96.50
2023-05-30T08:20:41.599Z,96.30
2023-05-30T08:23:08.570Z,96.50
2023-05-30T08:25:38.193Z,96.00
2023-05-30T08:28:06.172Z,95.70
2023-05-30T08:30:35.732Z,95.70
2023-05-30T08:33:03.177Z,95.00
2023-05-30T08:35:30.562Z,93.80
2023-05-30T08:37:59.929Z,93.90
2023-05-30T08:40:27.820Z,94.10
2023-05-30T08:42:54.976Z,93.70
2023-05-30T08:45:22.231Z,94.20
2023-05-30T08:47:53.920Z,94.20
2023-05-30T08:50:22.305Z,93.90
2023-05-30T08:52:54.072Z,93.20
2023-05-30T08:55:31.868Z,94.00
2023-05-30T08:58:24.214Z,94.10
2023-05-30T09:00:53.560Z,94.90
2023-05-30T09:03:21.507Z,95.20
2023-05-30T09:05:49.135Z,95.40
2023-05-30T09:21:02.458Z,95.20
2023-05-30T09:23:30.694Z,93.60
2023-05-30T09:26:01.472Z,92.60
2023-05-30T09:28:29.616Z,93.10
2023-05-30T09:31:00.912Z,92.90
2023-05-30T09:33:49.434Z,92.70
2023-05-30T09:36:27.593Z,92.50
2023-05-30T09:39:08.354Z,91.90
2023-05-30T09:41:36.190Z,91.60
2023-05-30T09:44:07.267Z,92.20
2023-05-30T09:46:36.737Z,92.70
2023-05-30T09:49:21.844Z,93.00
2023-05-30T09:51:51.526Z,93.20
2023-05-30T09:54:20.725Z,92.40
2023-05-30T09:56:47.701Z,92.30
2023-05-30T09:59:16.011Z,92.10
2023-05-30T10:01:47.899Z,92.20
2023-05-30T10:04:17.582Z,92.50
2023-05-30T10:06:49.531Z,92.60
2023-05-30T10:09:16.997Z,92.50
2023-05-30T10:11:45.302Z,93.40
2023-05-30T10:14:13.153Z,92.40
2023-05-30T10:16:55.048Z,92.10
2023-05-30T10:19:54.845Z,91.50
2023-05-30T10:22:24.969Z,91.60
2023-05-30T10:24:52.769Z,91.50
2023-05-30T10:27:25.457Z,91.10
2023-05-30T10:30:07.993Z,91.10
2023-05-30T10:32:38.254Z,91.40
2023-05-30T10:35:20.249Z,91.20
2023-05-30T10:37:48.997Z,91.40
2023-05-30T10:40:32.456Z,91.50
2023-05-30T10:43:22.407Z,91.00
2023-05-30T10:46:08.278Z,90.70
2023-05-30T10:49:11.244Z,90.80
2023-05-30T10:52:00.166Z,90.90
2023-05-30T10:54:31.489Z,90.50
2023-05-30T10:56:59.946Z,90.30
2023-05-30T10:59:27.087Z,90.40
2023-05-30T11:02:07.744Z,90.20
2023-05-30T11:04:42.051Z,91.00
2023-05-30T11:07:12.482Z,90.80
2023-05-30T11:09:43.386Z,90.30
2023-05-30T11:12:23.189Z,89.50
2023-05-30T11:14:57.861Z,89.00
2023-05-30T11:17:39.080Z,88.20
2023-05-30T11:20:23.228Z,90.00
2023-05-30T11:23:02.871Z,89.20
2023-05-30T11:25:34.229Z,89.20
2023-05-30T11:28:13.903Z,89.50
2023-05-30T11:30:50.350Z,90.30
2023-05-30T11:33:19.088Z,90.50
2023-05-30T11:35:50.454Z,86.20
2023-05-30T11:38:21.734Z,86.50
2023-05-30T11:40:50.648Z,85.80
2023-05-30T11:43:18.508Z,85.60
2023-05-30T11:45:51.197Z,86.90
2023-05-30T11:48:19.263Z,87.80
2023-05-30T11:50:46.757Z,85.10
2023-05-30T11:53:15.893Z,84.50
2023-05-30T11:55:49.672Z,85.00
2023-05-30T11:58:17.774Z,84.50
2023-05-30T12:00:45.855Z,85.00
2023-05-30T12:03:19.997Z,84.70
2023-05-30T12:05:48.372Z,85.50
2023-05-30T12:08:18.299Z,84.70
2023-05-30T12:10:45.462Z,84.00
2023-05-30T12:13:12.738Z,84.00
2023-05-30T12:15:40.235Z,83.80
2023-05-30T12:18:08.207Z,83.30
2023-05-30T12:20:57.456Z,84.00
2023-05-30T12:23:25.793Z,84.20
2023-05-30T12:25:56.836Z,85.20
2023-05-30T12:28:24.409Z,84.30
2023-05-30T12:30:55.241Z,83.80
2023-05-30T12:33:23.291Z,83.80
2023-05-30T12:35:55.609Z,84.00
2023-05-30T12:38:23.171Z,82.40
2023-05-30T12:40:51.450Z,81.80
2023-05-30T12:43:26.732Z,82.20
2023-05-30T12:45:53.683Z,82.40
2023-05-30T12:48:20.845Z,81.40
2023-05-30T12:50:47.954Z,81.30
2023-05-30T12:53:14.923Z,81.60
2023-05-30T12:55:41.851Z,82.10
2023-05-30T12:58:08.748Z,83.70
2023-05-30T13:00:37.506Z,84.90
2023-05-30T13:03:05.037Z,84.20
2023-05-30T13:05:32.333Z,84.70
2023-05-30T13:07:59.188Z,83.40
2023-05-30T13:10:26.138Z,82.90
2023-05-30T13:12:53.078Z,83.50
2023-05-30T13:15:20.147Z,84.20
2023-05-30T13:17:47.092Z,84.90
2023-05-30T13:20:14.406Z,84.60
2023-05-30T13:22:41.399Z,84.50
2023-05-30T13:25:08.795Z,84.00
2023-05-30T13:27:35.811Z,84.40
2023-05-30T13:30:02.943Z,83.80
2023-05-30T13:32:29.892Z,85.10
2023-05-30T13:34:56.803Z,84.70
2023-05-30T13:37:23.903Z,85.10
2023-05-30T13:39:50.988Z,85.00
2023-05-30T13:42:18.077Z,84.20
2023-05-30T13:44:45.318Z,84.40
2023-05-30T13:47:12.280Z,82.90
2023-05-30T13:49:40.351Z,82.30
2023-05-30T13:52:08.992Z,82.50
2023-05-30T13:54:37.237Z,83.50
2023-05-30T13:57:04.491Z,82.60
2023-05-30T13:59:31.444Z,82.20
2023-05-30T14:02:00.164Z,82.40
2023-05-30T14:04:27.566Z,82.80
2023-05-30T14:06:55.777Z,82.30
2023-05-30T14:09:25.413Z,82.60
2023-05-30T14:11:52.485Z,82.30
2023-05-30T14:14:20.105Z,81.50
2023-05-30T14:16:47.335Z,82.10
2023-05-30T14:19:14.392Z,82.30
2023-05-30T14:21:42.256Z,82.00
2023-05-30T14:24:09.291Z,80.70
2023-05-30T14:26:36.215Z,81.30
2023-05-30T14:29:03.868Z,80.30
2023-05-30T14:31:31.215Z,82.00
2023-05-30T14:33:58.489Z,81.80
2023-05-30T14:36:25.682Z,80.60
2023-05-30T14:38:52.677Z,79.80
2023-05-30T14:41:19.688Z,80.40
2023-05-30T14:43:46.669Z,80.20
2023-05-30T14:46:13.721Z,81.00
2023-05-30T14:48:40.712Z,79.40
2023-05-30T14:51:07.579Z,76.80
2023-05-30T14:53:35.718Z,74.90
2023-05-30T14:56:03.706Z,73.70
2023-05-30T14:58:30.746Z,73.60
2023-05-30T15:00:57.794Z,74.40
2023-05-30T15:03:25.272Z,74.60
2023-05-30T15:05:52.388Z,74.20
2023-05-30T15:08:19.371Z,74.00
2023-05-30T15:10:46.421Z,74.30
2023-05-30T15:13:14.051Z,73.20
2023-05-30T15:15:41.009Z,71.00
2023-05-30T15:18:07.974Z,71.90
2023-05-30T15:20:35.025Z,72.90
2023-05-30T15:23:02.033Z,73.10
2023-05-30T15:25:28.929Z,73.70
2023-05-30T15:27:56.593Z,74.00
2023-05-30T15:30:24.735Z,74.20
2023-05-30T15:32:53.348Z,72.70
2023-05-30T15:35:20.557Z,72.30
2023-05-30T15:37:47.580Z,71.80
2023-05-30T15:40:14.545Z,71.70
2023-05-30T15:42:41.442Z,72.00
2023-05-30T15:45:08.860Z,71.90
2023-05-30T15:47:35.899Z,71.60
2023-05-30T15:50:03.253Z,70.90
2023-05-30T15:52:30.359Z,72.10
2023-05-30T15:54:57.289Z,72.80
2023-05-30T15:57:25.766Z,69.70
2023-05-30T15:59:52.775Z,70.50
2023-05-30T16:02:19.812Z,70.80
2023-05-30T16:04:46.837Z,70.20
2023-05-30T16:07:16.947Z,71.70
2023-05-30T16:09:43.876Z,72.00
2023-05-30T16:12:10.968Z,72.10
2023-05-30T16:14:38.001Z,71.80
2023-05-30T16:17:08.160Z,71.90
2023-05-30T16:19:35.128Z,71.70
2023-05-30T16:22:02.014Z,73.00
2023-05-30T16:24:29.088Z,72.60
2023-05-30T16:26:55.995Z,73.70
2023-05-30T16:29:23.100Z,72.90
2023-05-30T16:31:50.612Z,73.00
2023-05-30T16:34:17.542Z,73.10
2023-05-30T16:36:44.504Z,73.70
2023-05-30T16:39:13.216Z,73.60
2023-05-30T16:41:40.520Z,73.10
2023-05-30T16:44:07.453Z,73.20
2023-05-30T16:46:35.500Z,73.60
2023-05-30T16:49:02.550Z,85.70
2023-05-30T16:51:29.575Z,90.30
2023-05-30T16:53:56.496Z,90.80
2023-05-30T16:56:23.422Z,91.70
2023-05-30T16:58:50.603Z,92.50
2023-05-30T17:01:17.846Z,93.10
2023-05-30T17:03:44.940Z,93.50
2023-05-30T17:06:12.097Z,93.70
2023-05-30T17:08:39.635Z,93.60
2023-05-30T17:11:06.716Z,93.80
2023-05-30T17:13:34.337Z,93.90
2023-05-30T17:16:01.871Z,94.40
2023-05-30T17:18:28.902Z,94.70
2023-05-30T17:20:58.615Z,95.10
2023-05-30T17:23:27.729Z,95.40
2023-05-30T17:26:02.141Z,95.80
2023-05-30T17:28:29.971Z,96.20
2023-05-30T17:30:56.956Z,96.30
2023-05-30T17:33:23.930Z,96.50
2023-05-30T17:35:51.485Z,96.60
2023-05-30T17:38:18.365Z,96.90
2023-05-30T17:40:45.438Z,97.00
2023-05-30T17:43:12.366Z,97.10
2023-05-30T17:45:39.370Z,97.30
2023-05-30T17:48:11.573Z,97.50
2023-05-30T17:50:39.631Z,97.70
2023-05-30T17:53:07.371Z,98.10
2023-05-30T17:55:34.593Z,98.40
2023-05-30T17:58:01.899Z,98.50
2023-05-30T18:00:30.633Z,98.80
2023-05-30T18:02:58.236Z,99.40
2023-05-30T18:05:25.780Z,99.50
2023-05-30T18:07:53.028Z,99.90
2023-05-30T18:10:19.975Z,99.90
2023-05-30T18:12:46.850Z,99.90
2023-05-30T18:15:14.411Z,99.90
2023-05-30T18:17:41.505Z,99.90
2023-05-30T18:20:09.082Z,99.90
2023-05-30T18:22:36.525Z,99.90
2023-05-30T18:25:03.686Z,99.90
2023-05-30T18:27:30.718Z,99.90
2023-05-30T18:29:57.669Z,99.90
2023-05-30T18:32:25.185Z,99.90
2023-05-30T18:34:52.241Z,99.90
2023-05-30T18:37:20.360Z,99.90
2023-05-30T18:39:49.945Z,99.90
2023-05-30T18:42:17.081Z,99.90
2023-05-30T18:44:44.057Z,99.90
2023-05-30T18:47:11.832Z,99.90
2023-05-30T18:49:39.551Z,99.90
2023-05-30T18:52:06.984Z,99.90
2023-05-30T18:54:35.211Z,99.90
2023-05-30T18:57:02.998Z,99.90
2023-05-30T18:59:30.588Z,99.90
2023-05-30T19:01:57.857Z,99.90
2023-05-30T19:04:24.939Z,99.90
2023-05-30T19:06:56.961Z,99.90
2023-05-30T19:09:24.414Z,99.90
2023-05-30T19:11:51.624Z,99.90
2023-05-30T19:14:18.665Z,99.90
2023-05-30T19:16:45.737Z,99.90
2023-05-30T19:19:12.764Z,99.90
2023-05-30T19:21:39.816Z,99.90
2023-05-30T19:24:06.977Z,99.90
2023-05-30T19:26:34.025Z,99.90
2023-05-30T19:29:01.036Z,99.90
2023-05-30T19:31:28.128Z,99.90
2023-05-30T19:33:55.112Z,99.90
2023-05-30T19:36:22.075Z,99.90
2023-05-30T19:38:49.019Z,99.90
2023-05-30T19:41:16.506Z,99.90
2023-05-30T19:43:43.606Z,99.90
2023-05-30T19:46:12.184Z,99.90
2023-05-30T19:48:39.661Z,99.90
2023-05-30T19:51:06.683Z,99.90
2023-05-30T19:53:33.704Z,99.90
2023-05-30T19:56:01.033Z,99.90
2023-05-30T19:58:28.044Z,99.90
2023-05-30T20:00:55.175Z,99.90
2023-05-30T20:03:23.590Z,99.90
2023-05-30T20:05:50.767Z,99.90
2023-05-30T20:08:17.704Z,99.90
2023-05-30T20:10:44.859Z,99.90
2023-05-30T20:13:11.835Z,99.90
2023-05-30T20:15:38.914Z,99.90
2023-05-30T20:18:08.711Z,99.90
2023-05-30T20:20:36.119Z,99.90
2023-05-30T20:23:03.453Z,99.90
2023-05-30T20:25:30.766Z,99.90
2023-05-30T20:27:57.706Z,99.90
2023-05-30T20:30:25.068Z,99.90
2023-05-30T20:32:52.080Z,99.90
2023-05-30T20:35:19.272Z,99.90
2023-05-30T20:37:46.213Z,99.90
2023-05-30T20:40:13.478Z,99.90
2023-05-30T20:42:41.601Z,99.90
2023-05-30T20:45:09.663Z,99.90
2023-05-30T20:47:36.734Z,99.90
2023-05-30T20:50:05.164Z,99.90
2023-05-30T20:52:32.491Z,99.90
2023-05-30T20:54:59.546Z,99.90
2023-05-30T20:57:26.832Z,99.90
2023-05-30T20:59:54.681Z,99.90
2023-05-30T21:02:21.997Z,99.90
2023-05-30T21:04:49.766Z,99.90
2023-05-30T21:07:16.756Z,99.90
2023-05-30T21:09:43.869Z,99.90
2023-05-30T21:12:11.410Z,99.90
2023-05-30T21:14:38.945Z,99.90
2023-05-30T21:17:06.545Z,99.90
2023-05-30T21:19:33.450Z,99.90
2023-05-30T21:22:00.426Z,99.90
2023-05-30T21:24:27.355Z,99.90
2023-05-30T21:26:54.508Z,99.90
2023-05-30T21:29:21.600Z,99.90
2023-05-30T21:31:48.565Z,99.90
2023-05-30T21:34:15.573Z,99.90
2023-05-30T21:36:42.510Z,99.90
2023-05-30T21:39:09.449Z,99.90
2023-05-30T21:41:36.400Z,99.90
2023-05-30T21:44:03.951Z,99.90
2023-05-30T21:46:31.069Z,99.90
2023-05-30T21:48:58.292Z,99.90
2023-05-30T21:51:25.464Z,99.90
2023-05-30T21:54:06.445Z,99.90
2023-05-30T21:56:34.414Z,99.90
2023-05-30T21:59:01.401Z,99.90
2023-05-30T22:01:28.572Z,99.90
2023-05-30T22:03:55.817Z,99.90
2023-05-30T22:06:22.970Z,99.90
2023-05-30T22:08:52.101Z,99.90
2023-05-30T22:11:19.170Z,99.90
2023-05-30T22:13:46.346Z,99.90
2023-05-30T22:16:13.313Z,99.90
2023-05-30T22:18:40.531Z,99.90
2023-05-30T22:21:07.472Z,99.90
2023-05-30T22:23:34.467Z,99.90
2023-05-30T22:26:01.414Z,99.90
2023-05-30T22:28:28.461Z,99.90
2023-05-30T22:30:55.548Z,99.90
2023-05-30T22:33:22.451Z,99.90
2023-05-30T22:35:49.362Z,99.90
2023-05-30T22:38:16.499Z,99.90
2023-05-30T22:40:43.546Z,99.90
2023-05-30T22:43:10.509Z,99.90
2023-05-30T22:45:37.486Z,99.90
2023-05-30T22:48:04.629Z,99.90
2023-05-30T22:50:31.648Z,99.90
2023-05-30T22:52:58.540Z,99.90
2023-05-30T22:55:25.463Z,99.90
2023-05-30T22:57:52.452Z,99.90
2023-05-30T23:00:19.558Z,99.90
2023-05-30T23:02:46.949Z,99.90
2023-05-30T23:05:14.030Z,99.90
2023-05-30T23:07:41.065Z,99.90
2023-05-30T23:10:08.814Z,99.90
2023-05-30T23:12:35.780Z,99.90
2023-05-30T23:15:02.776Z,99.90
2023-05-30T23:17:29.727Z,99.90
2023-05-30T23:19:56.824Z,99.90
2023-05-30T23:22:23.821Z,99.90
2023-05-30T23:24:50.941Z,99.90
2023-05-30T23:27:17.956Z,99.90
2023-05-30T23:29:44.893Z,99.90
2023-05-30T23:32:11.773Z,99.90
2023-05-30T23:34:38.657Z,99.90
2023-05-30T23:37:05.720Z,99.90
2023-05-30T23:39:32.666Z,99.90
2023-05-30T23:41:59.645Z,99.90
2023-05-30T23:44:26.641Z,99.90
2023-05-30T23:46:53.759Z,99.90
2023-05-30T23:49:20.916Z,99.90
2023-05-30T23:51:48.633Z,99.90
2023-05-30T23:54:15.745Z,99.90
2023-05-30T23:56:42.744Z,99.90
2023-05-30T23:59:09.753Z,99.90
